sensor_id;sensor_type;location;lat;lon;timestamp;temperature;humidity
49711;DHT22;35602;44.534;18.696;2023-03-20T00:04:37;20.40;51.60
49711;DHT22;35602;44.534;18.696;2023-03-20T00:09:38;20.40;51.60
49711;DHT22;35602;44.534;18.696;2023-03-20T00:14:39;20.40;51.60
49711;DHT22;35602;44.534;18.696;2023-03-20T00:19:40;20.40;51.60
49711;DHT22;35602;44.534;18.696;2023-03-20T00:24:40;20.40;51.60
49711;DHT22;35602;44.534;18.696;2023-03-20T00:29:41;20.40;51.70
49711;DHT22;35602;44.534;18.696;2023-03-20T00:34:41;20.40;52.30
49711;DHT22;35602;44.534;18.696;2023-03-20T00:39:42;20.40;51.70
49711;DHT22;35602;44.534;18.696;2023-03-20T00:44:44;20.40;51.70
49711;DHT22;35602;44.534;18.696;2023-03-20T00:49:47;20.40;51.70
49711;DHT22;35602;44.534;18.696;2023-03-20T00:54:49;20.40;51.80
49711;DHT22;35602;44.534;18.696;2023-03-20T01:00:00;20.40;51.70
49711;DHT22;35602;44.534;18.696;2023-03-20T01:05:04;20.40;51.60
49711;DHT22;35602;44.534;18.696;2023-03-20T01:10:05;20.40;51.70
49711;DHT22;35602;44.534;18.696;2023-03-20T01:15:20;20.40;51.60
49711;DHT22;35602;44.534;18.696;2023-03-20T01:20:23;20.40;51.70
49711;DHT22;35602;44.534;18.696;2023-03-20T01:25:25;20.40;51.70
49711;DHT22;35602;44.534;18.696;2023-03-20T01:30:27;20.40;51.70
49711;DHT22;35602;44.534;18.696;2023-03-20T01:35:28;20.40;51.60
49711;DHT22;35602;44.534;18.696;2023-03-20T01:40:32;20.40;51.60
49711;DHT22;35602;44.534;18.696;2023-03-20T01:45:34;20.40;51.70
49711;DHT22;35602;44.534;18.696;2023-03-20T01:50:35;20.40;51.60
49711;DHT22;35602;44.534;18.696;2023-03-20T01:55:36;20.40;51.70
49711;DHT22;35602;44.534;18.696;2023-03-20T02:00:38;20.40;51.70
49711;DHT22;35602;44.534;18.696;2023-03-20T02:05:38;20.40;51.60
49711;DHT22;35602;44.534;18.696;2023-03-20T02:10:39;20.40;51.70
49711;DHT22;35602;44.534;18.696;2023-03-20T02:15:57;20.40;51.70
49711;DHT22;35602;44.534;18.696;2023-03-20T02:29:19;20.40;51.70
49711;DHT22;35602;44.534;18.696;2023-03-20T02:43:45;20.40;51.70
49711;DHT22;35602;44.534;18.696;2023-03-20T02:48:52;20.40;51.70
49711;DHT22;35602;44.534;18.696;2023-03-20T03:03:14;20.40;51.60
49711;DHT22;35602;44.534;18.696;2023-03-20T03:08:17;20.40;51.70
49711;DHT22;35602;44.534;18.696;2023-03-20T03:13:20;20.40;51.60
49711;DHT22;35602;44.534;18.696;2023-03-20T03:18:23;20.40;51.60
49711;DHT22;35602;44.534;18.696;2023-03-20T03:23:29;20.40;51.60
49711;DHT22;35602;44.534;18.696;2023-03-20T03:28:35;20.40;51.60
49711;DHT22;35602;44.534;18.696;2023-03-20T03:33:38;20.40;51.60
49711;DHT22;35602;44.534;18.696;2023-03-20T03:38:45;20.40;51.60
49711;DHT22;35602;44.534;18.696;2023-03-20T03:44:05;20.40;51.60
49711;DHT22;35602;44.534;18.696;2023-03-20T03:49:07;20.40;51.60
49711;DHT22;35602;44.534;18.696;2023-03-20T03:54:18;20.30;51.50
49711;DHT22;35602;44.534;18.696;2023-03-20T03:59:22;20.30;51.60
49711;DHT22;35602;44.534;18.696;2023-03-20T04:04:24;20.40;51.70
49711;DHT22;35602;44.534;18.696;2023-03-20T04:09:25;20.40;51.70
49711;DHT22;35602;44.534;18.696;2023-03-20T04:14:26;20.30;51.60
49711;DHT22;35602;44.534;18.696;2023-03-20T04:19:27;20.30;51.60
49711;DHT22;35602;44.534;18.696;2023-03-20T04:24:27;20.30;51.60
49711;DHT22;35602;44.534;18.696;2023-03-20T04:29:28;20.30;51.70
49711;DHT22;35602;44.534;18.696;2023-03-20T04:34:29;20.30;51.80
49711;DHT22;35602;44.534;18.696;2023-03-20T04:39:29;20.30;51.80
49711;DHT22;35602;44.534;18.696;2023-03-20T04:44:30;20.30;51.80
49711;DHT22;35602;44.534;18.696;2023-03-20T04:49:31;20.40;51.90
49711;DHT22;35602;44.534;18.696;2023-03-20T04:54:31;20.30;51.90
49711;DHT22;35602;44.534;18.696;2023-03-20T04:59:32;20.30;51.90
49711;DHT22;35602;44.534;18.696;2023-03-20T05:04:33;20.30;51.90
49711;DHT22;35602;44.534;18.696;2023-03-20T05:09:34;20.30;51.90
49711;DHT22;35602;44.534;18.696;2023-03-20T05:14:35;20.30;51.90
49711;DHT22;35602;44.534;18.696;2023-03-20T05:19:35;20.30;51.90
49711;DHT22;35602;44.534;18.696;2023-03-20T05:24:36;20.30;51.90
49711;DHT22;35602;44.534;18.696;2023-03-20T05:29:37;20.30;51.90
49711;DHT22;35602;44.534;18.696;2023-03-20T05:34:37;20.30;52.00
49711;DHT22;35602;44.534;18.696;2023-03-20T05:39:38;20.30;51.90
49711;DHT22;35602;44.534;18.696;2023-03-20T05:44:39;20.30;52.00
49711;DHT22;35602;44.534;18.696;2023-03-20T05:49:40;20.30;52.00
49711;DHT22;35602;44.534;18.696;2023-03-20T05:54:41;20.30;52.00
49711;DHT22;35602;44.534;18.696;2023-03-20T05:59:42;20.30;52.00
49711;DHT22;35602;44.534;18.696;2023-03-20T06:04:42;20.30;51.90
49711;DHT22;35602;44.534;18.696;2023-03-20T06:09:43;20.30;51.90
49711;DHT22;35602;44.534;18.696;2023-03-20T06:14:44;20.30;52.00
49711;DHT22;35602;44.534;18.696;2023-03-20T06:19:44;20.30;51.90
49711;DHT22;35602;44.534;18.696;2023-03-20T06:24:45;20.30;52.00
49711;DHT22;35602;44.534;18.696;2023-03-20T06:29:46;20.30;51.90
49711;DHT22;35602;44.534;18.696;2023-03-20T06:34:46;20.30;51.90
49711;DHT22;35602;44.534;18.696;2023-03-20T06:39:47;20.30;51.90
49711;DHT22;35602;44.534;18.696;2023-03-20T06:44:49;20.30;51.90
49711;DHT22;35602;44.534;18.696;2023-03-20T06:49:50;20.30;51.90
49711;DHT22;35602;44.534;18.696;2023-03-20T06:54:51;20.30;51.90
49711;DHT22;35602;44.534;18.696;2023-03-20T06:59:51;20.30;51.90
49711;DHT22;35602;44.534;18.696;2023-03-20T07:04:52;20.30;51.90
49711;DHT22;35602;44.534;18.696;2023-03-20T07:09:53;20.30;51.80
49711;DHT22;35602;44.534;18.696;2023-03-20T07:14:54;20.30;51.80
49711;DHT22;35602;44.534;18.696;2023-03-20T07:19:55;20.30;51.80
49711;DHT22;35602;44.534;18.696;2023-03-20T07:24:56;20.30;51.80
49711;DHT22;35602;44.534;18.696;2023-03-20T07:29:57;20.30;51.80
49711;DHT22;35602;44.534;18.696;2023-03-20T07:34:57;20.30;51.70
49711;DHT22;35602;44.534;18.696;2023-03-20T07:39:58;20.30;51.70
49711;DHT22;35602;44.534;18.696;2023-03-20T07:44:59;20.40;51.80
49711;DHT22;35602;44.534;18.696;2023-03-20T07:49:59;20.30;51.70
49711;DHT22;35602;44.534;18.696;2023-03-20T07:55:00;20.40;51.80
49711;DHT22;35602;44.534;18.696;2023-03-20T08:00:01;20.40;51.70
49711;DHT22;35602;44.534;18.696;2023-03-20T08:05:02;20.40;51.80
49711;DHT22;35602;44.534;18.696;2023-03-20T08:10:03;20.40;51.70
49711;DHT22;35602;44.534;18.696;2023-03-20T08:15:04;20.40;51.60
49711;DHT22;35602;44.534;18.696;2023-03-20T08:20:05;20.50;51.70
49711;DHT22;35602;44.534;18.696;2023-03-20T08:25:07;20.50;51.60
49711;DHT22;35602;44.534;18.696;2023-03-20T08:30:08;20.50;51.60
49711;DHT22;35602;44.534;18.696;2023-03-20T08:35:09;20.50;51.30
49711;DHT22;35602;44.534;18.696;2023-03-20T08:40:11;20.50;51.20
49711;DHT22;35602;44.534;18.696;2023-03-20T08:45:11;20.50;51.20
49711;DHT22;35602;44.534;18.696;2023-03-20T08:50:12;20.60;51.20
49711;DHT22;35602;44.534;18.696;2023-03-20T08:55:13;20.60;51.10
49711;DHT22;35602;44.534;18.696;2023-03-20T09:00:14;20.60;51.10
49711;DHT22;35602;44.534;18.696;2023-03-20T09:05:15;20.60;51.00
49711;DHT22;35602;44.534;18.696;2023-03-20T09:10:16;20.60;50.80
49711;DHT22;35602;44.534;18.696;2023-03-20T09:15:17;20.60;50.50
49711;DHT22;35602;44.534;18.696;2023-03-20T09:20:17;20.60;50.50
49711;DHT22;35602;44.534;18.696;2023-03-20T09:25:18;20.60;50.30
49711;DHT22;35602;44.534;18.696;2023-03-20T09:30:19;20.60;50.60
49711;DHT22;35602;44.534;18.696;2023-03-20T09:35:19;20.60;50.10
49711;DHT22;35602;44.534;18.696;2023-03-20T09:40:26;20.60;50.20
49711;DHT22;35602;44.534;18.696;2023-03-20T09:45:38;20.70;50.30
49711;DHT22;35602;44.534;18.696;2023-03-20T09:50:45;20.70;50.40
49711;DHT22;35602;44.534;18.696;2023-03-20T09:55:48;20.70;50.30
49711;DHT22;35602;44.534;18.696;2023-03-20T10:00:49;20.70;50.40
49711;DHT22;35602;44.534;18.696;2023-03-20T10:05:53;20.70;50.40
49711;DHT22;35602;44.534;18.696;2023-03-20T10:10:57;20.70;50.40
49711;DHT22;35602;44.534;18.696;2023-03-20T10:23:51;20.80;50.50
49711;DHT22;35602;44.534;18.696;2023-03-20T10:29:42;20.80;50.60
49711;DHT22;35602;44.534;18.696;2023-03-20T10:35:00;20.80;50.60
49711;DHT22;35602;44.534;18.696;2023-03-20T10:40:26;20.80;50.60
49711;DHT22;35602;44.534;18.696;2023-03-20T10:45:36;20.80;50.30
49711;DHT22;35602;44.534;18.696;2023-03-20T10:50:43;20.80;50.40
49711;DHT22;35602;44.534;18.696;2023-03-20T10:55:44;20.90;50.50
49711;DHT22;35602;44.534;18.696;2023-03-20T11:00:45;20.90;50.60
49711;DHT22;35602;44.534;18.696;2023-03-20T11:05:47;20.90;50.50
49711;DHT22;35602;44.534;18.696;2023-03-20T11:10:56;20.90;51.30
49711;DHT22;35602;44.534;18.696;2023-03-20T11:16:06;20.90;51.60
49711;DHT22;35602;44.534;18.696;2023-03-20T11:21:12;21.00;52.00
49711;DHT22;35602;44.534;18.696;2023-03-20T11:26:15;21.00;52.20
49711;DHT22;35602;44.534;18.696;2023-03-20T11:31:17;21.00;52.50
49711;DHT22;35602;44.534;18.696;2023-03-20T11:41:40;21.10;53.00
49711;DHT22;35602;44.534;18.696;2023-03-20T11:46:41;21.10;53.10
49711;DHT22;35602;44.534;18.696;2023-03-20T11:51:42;21.10;52.90
49711;DHT22;35602;44.534;18.696;2023-03-20T11:56:58;21.10;53.20
49711;DHT22;35602;44.534;18.696;2023-03-20T12:02:03;21.20;53.40
49711;DHT22;35602;44.534;18.696;2023-03-20T12:07:10;21.20;53.60
49711;DHT22;35602;44.534;18.696;2023-03-20T12:12:23;21.20;53.20
49711;DHT22;35602;44.534;18.696;2023-03-20T12:29:22;21.20;52.50
49711;DHT22;35602;44.534;18.696;2023-03-20T12:34:27;21.20;52.00
49711;DHT22;35602;44.534;18.696;2023-03-20T12:39:32;21.20;51.90
49711;DHT22;35602;44.534;18.696;2023-03-20T12:44:38;21.10;51.80
49711;DHT22;35602;44.534;18.696;2023-03-20T12:50:06;21.20;52.20
49711;DHT22;35602;44.534;18.696;2023-03-20T12:55:30;21.20;52.30
49711;DHT22;35602;44.534;18.696;2023-03-20T13:00:36;21.20;52.50
49711;DHT22;35602;44.534;18.696;2023-03-20T13:05:40;21.20;53.00
49711;DHT22;35602;44.534;18.696;2023-03-20T13:10:50;21.20;53.50
49711;DHT22;35602;44.534;18.696;2023-03-20T13:23:32;21.20;54.10
49711;DHT22;35602;44.534;18.696;2023-03-20T13:34:16;21.30;55.00
49711;DHT22;35602;44.534;18.696;2023-03-20T13:39:20;21.30;55.40
49711;DHT22;35602;44.534;18.696;2023-03-20T13:44:22;21.30;55.40
49711;DHT22;35602;44.534;18.696;2023-03-20T13:49:37;21.30;55.60
49711;DHT22;35602;44.534;18.696;2023-03-20T13:54:41;21.40;55.80
49711;DHT22;35602;44.534;18.696;2023-03-20T14:07:54;21.40;56.00
49711;DHT22;35602;44.534;18.696;2023-03-20T14:13:03;21.40;56.30
49711;DHT22;35602;44.534;18.696;2023-03-20T14:18:06;21.40;56.50
49711;DHT22;35602;44.534;18.696;2023-03-20T14:23:15;21.40;56.40
49711;DHT22;35602;44.534;18.696;2023-03-20T14:28:23;21.50;56.70
49711;DHT22;35602;44.534;18.696;2023-03-20T14:33:25;21.50;57.00
49711;DHT22;35602;44.534;18.696;2023-03-20T14:57:37;21.50;56.90
49711;DHT22;35602;44.534;18.696;2023-03-20T15:02:37;21.40;56.60
49711;DHT22;35602;44.534;18.696;2023-03-20T15:07:38;21.40;56.50
49711;DHT22;35602;44.534;18.696;2023-03-20T15:12:39;21.40;56.50
49711;DHT22;35602;44.534;18.696;2023-03-20T15:17:44;21.40;56.50
49711;DHT22;35602;44.534;18.696;2023-03-20T15:22:56;21.30;56.40
49711;DHT22;35602;44.534;18.696;2023-03-20T15:27:57;21.30;56.40
49711;DHT22;35602;44.534;18.696;2023-03-20T15:32:58;21.20;56.30
49711;DHT22;35602;44.534;18.696;2023-03-20T15:38:03;21.20;56.30
49711;DHT22;35602;44.534;18.696;2023-03-20T15:43:20;21.20;56.30
49711;DHT22;35602;44.534;18.696;2023-03-20T15:48:22;21.20;56.20
49711;DHT22;35602;44.534;18.696;2023-03-20T15:53:28;21.20;56.80
49711;DHT22;35602;44.534;18.696;2023-03-20T15:58:29;21.10;56.20
49711;DHT22;35602;44.534;18.696;2023-03-20T16:03:31;21.10;56.10
49711;DHT22;35602;44.534;18.696;2023-03-20T16:08:34;21.10;56.10
49711;DHT22;35602;44.534;18.696;2023-03-20T16:13:36;21.10;56.10
49711;DHT22;35602;44.534;18.696;2023-03-20T16:18:38;21.10;56.00
49711;DHT22;35602;44.534;18.696;2023-03-20T16:23:40;21.00;56.00
49711;DHT22;35602;44.534;18.696;2023-03-20T16:28:44;21.00;55.90
49711;DHT22;35602;44.534;18.696;2023-03-20T16:33:45;21.00;55.90
49711;DHT22;35602;44.534;18.696;2023-03-20T16:38:54;21.00;55.90
49711;DHT22;35602;44.534;18.696;2023-03-20T16:43:55;21.00;55.80
49711;DHT22;35602;44.534;18.696;2023-03-20T16:48:57;21.00;55.80
49711;DHT22;35602;44.534;18.696;2023-03-20T16:53:58;21.00;55.90
49711;DHT22;35602;44.534;18.696;2023-03-20T16:59:07;21.00;55.80
49711;DHT22;35602;44.534;18.696;2023-03-20T17:04:18;21.00;55.70
49711;DHT22;35602;44.534;18.696;2023-03-20T17:14:38;21.00;55.70
49711;DHT22;35602;44.534;18.696;2023-03-20T17:19:44;21.00;55.70
49711;DHT22;35602;44.534;18.696;2023-03-20T17:24:45;21.00;55.70
49711;DHT22;35602;44.534;18.696;2023-03-20T17:29:46;21.00;55.60
49711;DHT22;35602;44.534;18.696;2023-03-20T17:34:50;20.90;55.60
49711;DHT22;35602;44.534;18.696;2023-03-20T17:39:51;20.90;55.60
49711;DHT22;35602;44.534;18.696;2023-03-20T17:44:53;20.90;55.50
49711;DHT22;35602;44.534;18.696;2023-03-20T17:49:54;20.90;55.50
49711;DHT22;35602;44.534;18.696;2023-03-20T17:54:55;20.90;55.50
49711;DHT22;35602;44.534;18.696;2023-03-20T17:59:56;20.90;55.40
49711;DHT22;35602;44.534;18.696;2023-03-20T18:04:56;20.90;55.50
49711;DHT22;35602;44.534;18.696;2023-03-20T18:09:57;20.90;55.40
49711;DHT22;35602;44.534;18.696;2023-03-20T18:14:57;21.00;55.50
49711;DHT22;35602;44.534;18.696;2023-03-20T18:19:58;20.90;55.40
49711;DHT22;35602;44.534;18.696;2023-03-20T18:24:59;20.90;55.30
49711;DHT22;35602;44.534;18.696;2023-03-20T18:29:59;20.90;55.40
49711;DHT22;35602;44.534;18.696;2023-03-20T18:35:00;20.90;55.30
49711;DHT22;35602;44.534;18.696;2023-03-20T18:40:01;20.90;55.20
49711;DHT22;35602;44.534;18.696;2023-03-20T18:45:03;20.90;55.20
49711;DHT22;35602;44.534;18.696;2023-03-20T18:50:04;20.90;55.90
49711;DHT22;35602;44.534;18.696;2023-03-20T18:55:06;20.90;55.20
49711;DHT22;35602;44.534;18.696;2023-03-20T19:05:41;20.90;55.20
49711;DHT22;35602;44.534;18.696;2023-03-20T19:10:42;20.90;55.10
49711;DHT22;35602;44.534;18.696;2023-03-20T19:15:43;20.90;55.10
49711;DHT22;35602;44.534;18.696;2023-03-20T19:20:45;20.90;55.10
49711;DHT22;35602;44.534;18.696;2023-03-20T19:25:48;20.90;55.00
49711;DHT22;35602;44.534;18.696;2023-03-20T19:30:50;20.90;55.00
49711;DHT22;35602;44.534;18.696;2023-03-20T19:35:51;20.90;55.00
49711;DHT22;35602;44.534;18.696;2023-03-20T19:40:52;20.90;55.00
49711;DHT22;35602;44.534;18.696;2023-03-20T19:45:52;20.90;55.50
49711;DHT22;35602;44.534;18.696;2023-03-20T19:50:56;20.90;54.90
49711;DHT22;35602;44.534;18.696;2023-03-20T19:55:57;20.90;54.90
49711;DHT22;35602;44.534;18.696;2023-03-20T20:00:57;20.90;55.00
49711;DHT22;35602;44.534;18.696;2023-03-20T20:05:58;20.90;54.90
49711;DHT22;35602;44.534;18.696;2023-03-20T20:11:01;20.90;54.80
49711;DHT22;35602;44.534;18.696;2023-03-20T20:16:02;20.90;54.80
49711;DHT22;35602;44.534;18.696;2023-03-20T20:21:03;20.90;54.90
49711;DHT22;35602;44.534;18.696;2023-03-20T20:26:03;20.90;54.90
49711;DHT22;35602;44.534;18.696;2023-03-20T20:31:04;20.90;54.80
49711;DHT22;35602;44.534;18.696;2023-03-20T20:36:11;20.90;54.80
49711;DHT22;35602;44.534;18.696;2023-03-20T20:41:12;20.90;54.80
49711;DHT22;35602;44.534;18.696;2023-03-20T20:46:12;20.90;54.70
49711;DHT22;35602;44.534;18.696;2023-03-20T20:51:13;20.90;54.70
49711;DHT22;35602;44.534;18.696;2023-03-20T20:56:13;20.90;54.70
49711;DHT22;35602;44.534;18.696;2023-03-20T21:01:14;20.90;54.70
49711;DHT22;35602;44.534;18.696;2023-03-20T21:06:15;20.90;54.70
49711;DHT22;35602;44.534;18.696;2023-03-20T21:11:16;20.90;54.70
49711;DHT22;35602;44.534;18.696;2023-03-20T21:16:17;20.90;54.70
49711;DHT22;35602;44.534;18.696;2023-03-20T21:21:17;20.90;54.70
49711;DHT22;35602;44.534;18.696;2023-03-20T21:26:18;20.90;54.70
49711;DHT22;35602;44.534;18.696;2023-03-20T21:31:23;20.90;54.60
49711;DHT22;35602;44.534;18.696;2023-03-20T21:36:24;20.90;54.60
49711;DHT22;35602;44.534;18.696;2023-03-20T21:41:25;20.90;54.60
49711;DHT22;35602;44.534;18.696;2023-03-20T21:46:25;20.90;54.60
49711;DHT22;35602;44.534;18.696;2023-03-20T21:51:26;20.90;54.50
49711;DHT22;35602;44.534;18.696;2023-03-20T21:56:27;20.90;54.60
49711;DHT22;35602;44.534;18.696;2023-03-20T22:01:27;20.90;54.60
49711;DHT22;35602;44.534;18.696;2023-03-20T22:06:28;20.90;54.70
49711;DHT22;35602;44.534;18.696;2023-03-20T22:11:29;20.90;54.50
49711;DHT22;35602;44.534;18.696;2023-03-20T22:16:30;20.90;54.50
49711;DHT22;35602;44.534;18.696;2023-03-20T22:21:31;20.90;54.50
49711;DHT22;35602;44.534;18.696;2023-03-20T22:26:31;20.90;54.40
49711;DHT22;35602;44.534;18.696;2023-03-20T22:31:32;20.90;54.40
49711;DHT22;35602;44.534;18.696;2023-03-20T22:36:35;20.90;54.50
49711;DHT22;35602;44.534;18.696;2023-03-20T22:41:36;20.90;54.40
49711;DHT22;35602;44.534;18.696;2023-03-20T22:46:38;20.80;54.40
49711;DHT22;35602;44.534;18.696;2023-03-20T22:51:39;20.90;54.40
49711;DHT22;35602;44.534;18.696;2023-03-20T22:56:40;20.90;54.40
49711;DHT22;35602;44.534;18.696;2023-03-20T23:01:40;20.80;54.30
49711;DHT22;35602;44.534;18.696;2023-03-20T23:06:41;20.80;54.30
49711;DHT22;35602;44.534;18.696;2023-03-20T23:11:42;20.80;54.40
49711;DHT22;35602;44.534;18.696;2023-03-20T23:16:42;20.90;54.40
49711;DHT22;35602;44.534;18.696;2023-03-20T23:21:43;20.80;54.50
49711;DHT22;35602;44.534;18.696;2023-03-20T23:26:43;20.80;54.40
49711;DHT22;35602;44.534;18.696;2023-03-20T23:31:44;20.80;54.40
49711;DHT22;35602;44.534;18.696;2023-03-20T23:36:45;20.80;54.40
49711;DHT22;35602;44.534;18.696;2023-03-20T23:41:46;20.80;54.40
49711;DHT22;35602;44.534;18.696;2023-03-20T23:46:46;20.80;54.40
49711;DHT22;35602;44.534;18.696;2023-03-20T23:51:47;20.80;54.40
49711;DHT22;35602;44.534;18.696;2023-03-20T23:56:47;20.80;54.40
